Topton, NC (28781)

3:37 AM EST on November 27, 2014 (GMT -0500)
Noon Day Sun Ridge | Change Station
CLOSE
Current Station
Personal Weather Station
Location: Topton, NC
Elevation: 3003 ft
Nearby Weather Stations

Elev 3003 ft 35.26 °N, 83.69 °W | Updated 4 seconds ago

Mostly Cloudy
Mostly Cloudy
33.7 °F
Feels Like 28 °F
N
6.9
Wind Variable Wind from SSW
Gusts 6.9 mph

Today
High -- | Low -- °F
--% Chance of Precip.
Yesterday
High -- | Low -- °F
Precip. -- in
7:21 AM 5:23 PM
Waxing Crescent, 27% visible
Pressure 30.03 in
Visibility 10.0 miles
Clouds Scattered Clouds 1300 ft
Mostly Cloudy 4200 ft
Overcast 5000 ft
Windchill 28 °F
Dew Point 32 °F
Humidity 94%
Rainfall 0.00 in
Snow Depth Not available.
UV 0 out of 12
Pollen .10 out of 12
Air Quality Not available.
Flu Activity Not available.
METAR KRHP 270815Z AUTO 00000KT 10SM SCT013 BKN042 OVC050 02/01 A3003 RMK AO2 T00230010

More Conditions Fewer Conditions

Pressure 30.03 in
Visibility 10.0 miles
Clouds Scattered Clouds 1300 ft
Mostly Cloudy 4200 ft
Overcast 5000 ft
Windchill 28 °F
Dew Point 32 °F
Humidity 94%
Rainfall 0.00 in
Snow Depth Not available.
UV 0 out of 12
Pollen .10 out of 12
Air Quality Not available.
Flu Activity Not available.
METAR KRHP 270815Z AUTO 00000KT 10SM SCT013 BKN042 OVC050 02/01 A3003 RMK AO2 T00230010

More Conditions Fewer Conditions

10-Day Weather Forecast

Almanac

Astronomy

Nov. 27, 2014 Rise Set
Actual Time
Civil Twilight
Nautical Twilight
Astronomical Twilight
Moon
Length of Visible Light
Length of Day
Tomorrow will be .
, % of the Moon is Illuminated

Today's Extremes

State Highs State Lows

Community

WunderPhotos

Upload Photos

1,773,965 photos uploaded!

WunderBlogs® & News

Nearby

Air Quality

  Air Quality AQ Index Pollutant
Not available.

Snow Depth

Station Depth Elevation

Earthquake Activity

City Distance Mag. Time & Date
Minimum magnitude displayed is 2.5.

Coastal Water Temperatures

Place Temperature

Nearby Weather Stations